• Join FlightAware (Why Join?)
  • Login
  • US Flag 
05:18AM EDT


 

Airport Tracker/Info


-or-


 

Live Flight TrackerFlight Track Log ✈ TAM3744 ✈ 10-Nov-2013 ✈ SBSP / CGH - SBSR / SJP

Flight Track Log - Related Links

Times and Time Zones

All times are in EST time to prevent confusion due to time zone crossing. See the TAM3744 flight status page for this flight to view local times or setup timezone preferences in your user account.

Time Position Orientation Groundspeed Altitude Reporting Facility
EST Latitude Longitude Course Direction KTS MPH feet Rate Location/Type
12:48PM -23.6420 -46.6460 180° South 164 189 3,500  Level FlightAware
12:48PM -23.6560 -46.6400 159° South 169 194 4,000 900 Climbing FlightAware
12:49PM -23.6750 -46.6810 243° Southwest 240 276 4,500 600 Climbing FlightAware
12:49PM -23.6770 -46.7210 267° West 274 315 4,800 660 Climbing FlightAware
12:50PM -23.6800 -46.7740 266° West 280 322 5,300 960 Climbing FlightAware
12:51PM -23.6840 -46.8240 265° West 281 323 6,000 2,100 Climbing FlightAware
12:51PM -23.7020 -46.8860 252° West 283 326 8,100 2,820 Climbing FlightAware
12:52PM -23.7190 -46.9390 251° West 282 325 10,000 2,580 Climbing FlightAware
12:53PM -23.7110 -46.9960 279° West 297 342 11,600 2,280 Climbing FlightAware
12:53PM -23.6860 -47.0410 301° West 304 350 12,900 1,860 Climbing FlightAware
12:54PM -23.6530 -47.1040 300° West 328 377 14,100 1,200 Climbing FlightAware
12:55PM -23.6290 -47.1490 300° West 355 409 14,400 1,020 Climbing FlightAware
12:55PM -23.5950 -47.2140 300° West 375 432 15,300 1,320 Climbing FlightAware
12:56PM -23.5700 -47.2600 301° West 387 445 16,000 1,440 Climbing FlightAware
12:56PM -23.5370 -47.3220 300° West 393 452 16,900 1,680 Climbing FlightAware
12:57PM -23.4700 -47.4320 304° West 401 461 18,800 1,740 Climbing FlightAware
12:58PM -23.4320 -47.4890 306° West 401 461 19,800 1,560 Climbing FlightAware
12:59PM -23.3960 -47.5410 307° West 406 467 20,600 1,440 Climbing FlightAware
12:59PM -23.3520 -47.6060 306° West 409 471 21,500 1,260 Climbing FlightAware
01:00PM -23.3140 -47.6620 306° West 416 479 22,200 1,320 Climbing FlightAware
01:00PM -23.2770 -47.7160 307° West 418 481 23,000 1,440 Climbing FlightAware
01:01PM -23.2190 -47.8010 307° West 421 484 24,200 1,440 Climbing FlightAware
01:02PM -23.1680 -47.8760 306° West 420 483 25,300 1,500 Climbing FlightAware
01:03PM -23.0850 -47.9950 307° West 416 479 27,100 1,200 Climbing FlightAware
01:04PM -23.0160 -48.0960 307° West 413 475 28,000 540 Climbing FlightAware
01:05PM -22.9730 -48.1590 307° West 415 478 28,000  Level FlightAware
01:05PM -22.9290 -48.2230 307° West 415 478 28,000  Level FlightAware
01:06PM -22.8600 -48.3230 307° West 414 476 28,000  Level FlightAware
01:07PM -22.8190 -48.3820 307° West 414 476 28,000  Level FlightAware
01:08PM -22.7700 -48.4530 307° West 414 476 28,000  Level FlightAware
01:08PM -22.7220 -48.5220 307° West 413 475 28,000  Level FlightAware
01:09PM -22.6850 -48.5750 307° West 412 474 28,000  Level FlightAware
01:10PM -22.6070 -48.6870 307° West 412 474 28,000  Level FlightAware
01:11PM -22.5720 -48.7380 307° West 412 474 28,000  Level FlightAware
01:11PM -22.5250 -48.8050 307° West 412 474 28,000  Level FlightAware
01:12PM -22.4890 -48.8570 307° West 413 475 28,000  Level FlightAware
01:12PM -22.4440 -48.9200 308° West 415 478 28,000  Level FlightAware
01:13PM -22.4040 -48.9780 307° West 415 478 28,000  Level FlightAware
01:14PM -22.3350 -49.0760 307° West 416 479 28,000  Level FlightAware
01:14PM -22.2930 -49.1240 313° West 419 482 28,000 -600 Level FlightAware
01:15PM -22.2320 -49.1790 320° Northwest 413 475 27,300 -1,560 Descending FlightAware
01:16PM -22.1460 -49.2540 321° Northwest 404 465 25,400 -1,980 Descending FlightAware
01:17PM -22.0850 -49.3040 323° Northwest 402 463 24,000 -1,980 Descending FlightAware
01:18PM -22.0090 -49.3240 346° North 393 452 22,700 -1,980 Descending FlightAware
01:18PM -21.9500 -49.3360 349° North 389 448 21,500 -1,920 Descending FlightAware
01:19PM -21.8390 -49.3580 350° North 370 426 19,700 -1,800 Descending FlightAware
01:20PM -21.7270 -49.3810 349° North 355 409 17,700 -1,860 Descending FlightAware
01:21PM -21.6950 -49.3870 350° North 350 403 17,100 -1,800 Descending FlightAware
01:21PM -21.6380 -49.3980 350° North 349 402 16,000 -1,740 Descending FlightAware
01:22PM -21.5910 -49.4080 349° North 346 398 15,100 -1,680 Descending FlightAware
01:22PM -21.5280 -49.4200 350° North 334 384 14,100 -1,620 Descending FlightAware
01:23PM -21.4660 -49.4330 349° North 324 373 13,000 -1,740 Descending FlightAware
01:24PM -21.4120 -49.4440 349° North 321 369 11,900 -1,980 Descending FlightAware
01:24PM -21.3420 -49.4580 349° North 316 364 10,300 -1,500 Descending FlightAware
01:25PM -21.2810 -49.4690 350° North 295 339 9,600 -1,260 Descending FlightAware
01:26PM -21.2040 -49.4850 349° North 287 330 8,200 -1,500 Descending FlightAware
01:27PM -21.1750 -49.4930 346° North 284 327 7,600 -780 Descending FlightAware
01:27PM -21.1460 -49.5000 347° North 284 327 7,600 -840 Level FlightAware
01:30PM -20.9528 -49.4451 15° North  Level Estimated
01:30PM -20.9540 -49.5460 15° North 222 255 5,000  Level FlightAware
01:30PM -20.9200 -49.5450 North 217 250 4,900 -480 Descending FlightAware
01:31PM -20.8765 -49.4235 15° North  Level Estimated
01:31PM -20.9060 -49.5270 50° Northeast 180 207 4,500  Level FlightAware
01:32PM -20.8740 -49.4830 52° Northeast 167 192 3,500 -960 Descending FlightAware
01:32PM -20.8650 -49.4720 49° Northeast 149 171 3,200 -900 Descending FlightAware
01:33PM -20.8470 -49.4470 52° Northeast 143 165 2,600 -840 Descending FlightAware
01:34PM -20.8340 -49.4290 52° Northeast 146 168 2,200 -660 Descending FlightAware
01:34PM -20.8200 -49.4110 50° Northeast 146 168 1,900 -600 Descending FlightAware
01:35PM -20.8130 -49.4020 50° Northeast 146 168 -3,600 Descending FlightAware
01:35PM -20.7980 -49.3990 11° North 146 168  Level FlightAware
01:36PM -20.8130 -49.4030 194° South 146 168  Level FlightAware
01:37PM -20.8190 -49.3880 113° Southeast 146 168  Level FlightAware
01:37PM -20.8120 -49.4040 295° West 146 168  Level FlightAware
01:37PM -20.8190 -49.3870 114° Southeast 146 168  Level FlightAware
01:38PM -20.8190 -49.3880 270° West 146 168  Level FlightAware